• Join FlightAware (Why Join?)
  • Login
  • US Flag 
03:24AM EDT


 

Airport Tracker/Info


-or-


 

Live Flight TrackerFlight Track Log ✈ EJA982 ✈ 06-May-2013 ✈ KTEB - KIAD

Flight Track Log - Related Links

Times and Time Zones

All times are in EDT time to prevent confusion due to time zone crossing. See the EJA982 flight status page for this flight to view local times or setup timezone preferences in your user account.

Time Position Orientation Groundspeed Altitude Reporting Facility
EDT Latitude Longitude Course Direction KTS MPH feet Rate Location/Type
03:20PM 40.8167 -74.1167 252° West 203 234 1,600  Level New York TRACON
03:21PM 40.8000 -74.1833 252° West 214 246 2,200 3,000 Climbing New York TRACON
03:23PM 40.7833 -74.4068 270° West  Level FlightAware Approximate
03:24PM 40.7333 -74.4544 270° West 351 404 13,000  Level New York Center
03:25PM 40.7272 -74.5828 266° West 392 451 16,000 1,500 Climbing New York Center
03:26PM 40.7142 -74.7272 263° West 426 490 16,000  Level New York Center
03:28PM 40.6864 -75.0458 264° West 451 519 16,000  Level New York Center
03:30PM 40.5751 -75.2550 241° Southwest  Level FlightAware Approximate
03:32PM 40.4683 -75.6189 239° Southwest 443 510 16,000  Level New York Center
03:33PM 40.4069 -75.7372 236° Southwest 445 512 16,000  Level New York Center
03:34PM 40.3389 -75.8711 236° Southwest 445 512 16,000  Level New York Center
03:35PM 40.2683 -76.0047 235° Southwest 451 519 16,000  Level New York Center
03:36PM 40.1950 -76.1514 237° Southwest 446 513 16,000  Level New York Center
03:37PM 40.2213 -76.0557 239° Southwest  Level FlightAware Approximate
03:37PM 40.1333 -76.2689 236° Southwest 446 513 16,000  Level New York Center
03:38PM 40.1694 -76.1688 239° Southwest  Level FlightAware Approximate
03:38PM 40.0639 -76.4181 239° Southwest 446 513 16,000  Level New York Center
03:39PM 40.0058 -76.5381 238° Southwest 435 501 16,000 -300 Level New York Center
03:40PM 39.8833 -76.8000 239° Southwest 438 504 15,200 -420 Descending Potomac TRACON
03:41PM 39.8333 -76.9000 237° Southwest 429 494 15,000 -420 Descending Potomac TRACON
03:42PM 39.8333 -77.0500 270° West 344 396 14,400 -1,260 Descending Potomac TRACON
03:43PM 39.8167 -77.1667 260° West 317 365 12,400 -1,380 Descending Potomac TRACON
03:45PM 39.7022 -77.2057 233° Southwest  Level Estimated
03:45PM 39.6833 -77.2833 233° Southwest 278 320 10,100  Level Potomac TRACON
03:46PM 39.6167 -77.3333 210° Southwest 269 310 10,100 -720 Level Potomac TRACON
03:48PM 39.5093 -77.3487 186° South  Level FlightAware Approximate
03:49PM 39.4333 -77.3667 180° South 230 265 7,300  Level Potomac TRACON
03:52PM 39.2264 -77.4066 180° South  Level Estimated
03:52PM 39.2500 -77.3667 180° South 219 252 4,700  Level Potomac TRACON
03:53PM 39.1833 -77.3500 169° South 217 250 4,100 -360 Descending Potomac TRACON
03:54PM 39.1167 -77.3667 191° South 219 252 4,000 -60 Descending Potomac TRACON
03:55PM 38.9474 -77.4599 180° South  Level Estimated
03:56PM 39.0000 -77.3667 180° South 222 255 4,000  Level Potomac TRACON
03:57PM 38.9500 -77.3667 180° South 219 252 4,000  Level Potomac TRACON
03:58PM 38.8833 -77.3667 180° South 219 252 4,000  Level Potomac TRACON
03:59PM 38.8167 -77.3667 180° South 217 250 4,000  Level Potomac TRACON
04:01PM 38.9081 -77.4319 331° Northwest  Level FlightAware Approximate
04:02PM 38.6500 -77.3667 331° Northwest 219 252 4,000  Level Potomac TRACON
04:05PM 38.6167 -77.4500 243° Southwest 229 264 3,000 -300 Descending Potomac TRACON
04:06PM 38.6833 -77.4333 11° North 234 269 3,000 -300 Level Potomac TRACON
04:08PM 38.9333 -77.4500 331° Northwest  Level FlightAware Approximate
04:09PM 38.8333 -77.4333 360° North 171 197 1,900  Level Potomac TRACON
04:10PM 38.8833 -77.4333 360° North 131 151 1,200 -720 Descending Potomac TRACON
04:11PM 38.9167 -77.4333 360° North 129 148 500 -720 Descending Potomac TRACON